PWSweather.com
Personal Weather Stations
Station Observations
WIKENOS15
47th Ave & 30th St, Kenosha, WI 53144

47th Ave & 30th StKenosha, WI 53144

Lat: 42.612, Lon: -87.866

Elevation: 697

Station Type: Oregon Scientific 100N

Latest ConditionsUpdated 6:00:00 PM CST Thursday, Dec 18, 2014
Currently Today's Max Today's Min Today's Average
Temperature 26.8°F-2.9°C 28.1°F-2.2°C 15.9°F-8.9°C 22.0°F-5.6°C
Dew Point 25.3°F-3.7°C 25.3°F-3.7°C 13.9°F-10.1°C 19.1°F-7.2°C
Winds 1.5 mph WNW2.4 kmh WNW 3.0 mph WSW4.8 kmh WSW - 1.1 mph 1.8 kmh
Wind Gusts 2.3 mph3.7 kmh 5.2 mph8.4 kmh - -
Humidity 94% 94% 80% 89%
Pressure 30.27 in1025.1 mb 30.31 in1026.4 mb 30.24 in1024.0 mb -
Hour Temp Dew Point Humidity Winds Wind Gusts Pressure Precip Precip Rate Daily Precip Total
06:00 PM 26.8°F-2.9°C 25.3°F-3.7°C 94% 1.5 mph WNW2.4 kmh WNW 2.3 mph3.7 kmh 30.27 in1025.1 mb 0.00 in0.0 mm 0.00 in/hr0.0 mm/hr 0.00 in0.0 mm
05:45 PM 26.8°F-2.9°C 25.3°F-3.7°C 94% 1.0 mph NW1.6 kmh NW 1.5 mph2.4 kmh 30.26 in1024.7 mb 0.00 in0.0 mm 0.00 in/hr0.0 mm/hr 0.00 in0.0 mm
05:30 PM 26.8°F-2.9°C 25.3°F-3.7°C 94% 1.4 mph NW2.3 kmh NW 2.3 mph3.7 kmh 30.26 in1024.7 mb 0.00 in0.0 mm 0.00 in/hr0.0 mm/hr 0.00 in0.0 mm
05:15 PM 26.8°F-2.9°C 25.1°F-3.8°C 93% 1.4 mph WNW2.3 kmh WNW 3.0 mph4.8 kmh 30.26 in1024.7 mb 0.00 in0.0 mm 0.00 in/hr0.0 mm/hr 0.00 in0.0 mm
05:00 PM 26.9°F-2.8°C 25.1°F-3.8°C 93% 0.5 mph WNW0.8 kmh WNW 1.5 mph2.4 kmh 30.26 in1024.7 mb 0.00 in0.0 mm 0.00 in/hr0.0 mm/hr 0.00 in0.0 mm
04:45 PM 26.9°F-2.8°C 24.9°F-3.9°C 92% 0.8 mph WNW1.3 kmh WNW 0.8 mph1.3 kmh 30.25 in1024.4 mb 0.00 in0.0 mm 0.00 in/hr0.0 mm/hr 0.00 in0.0 mm
04:30 PM 26.9°F-2.8°C 24.7°F-4.1°C 91% 1.4 mph NW2.3 kmh NW 2.3 mph3.7 kmh 30.25 in1024.4 mb 0.00 in0.0 mm 0.00 in/hr0.0 mm/hr 0.00 in0.0 mm
04:15 PM 27.0°F-2.8°C 24.7°F-4.1°C 91% 1.3 mph NW2.1 kmh NW 2.3 mph3.7 kmh 30.25 in1024.4 mb 0.00 in0.0 mm 0.00 in/hr0.0 mm/hr 0.00 in0.0 mm
04:00 PM 27.1°F-2.7°C 24.6°F-4.1°C 90% 0.9 mph NNW1.4 kmh NNW 1.5 mph2.4 kmh 30.25 in1024.4 mb 0.00 in0.0 mm 0.00 in/hr0.0 mm/hr 0.00 in0.0 mm
03:45 PM 27.2°F-2.7°C 24.4°F-4.2°C 89% 0.8 mph NNW1.3 kmh NNW 1.5 mph2.4 kmh 30.25 in1024.4 mb 0.00 in0.0 mm 0.00 in/hr0.0 mm/hr 0.00 in0.0 mm
03:30 PM 27.4°F-2.6°C 24.6°F-4.1°C 89% 0.9 mph NW1.4 kmh NW 2.3 mph3.7 kmh 30.25 in1024.4 mb 0.00 in0.0 mm 0.00 in/hr0.0 mm/hr 0.00 in0.0 mm
03:15 PM 27.5°F-2.5°C 24.4°F-4.2°C 88% 1.5 mph NNW2.4 kmh NNW 1.5 mph2.4 kmh 30.25 in1024.4 mb 0.00 in0.0 mm 0.00 in/hr0.0 mm/hr 0.00 in0.0 mm
03:00 PM 27.8°F-2.3°C 24.2°F-4.3°C 86% 1.4 mph NNW2.3 kmh NNW 2.3 mph3.7 kmh 30.25 in1024.4 mb 0.00 in0.0 mm 0.00 in/hr0.0 mm/hr 0.00 in0.0 mm
02:45 PM 27.9°F-2.3°C 23.4°F-4.8°C 83% 1.4 mph NNW2.3 kmh NNW 2.3 mph3.7 kmh 30.24 in1024.0 mb 0.00 in0.0 mm 0.00 in/hr0.0 mm/hr 0.00 in0.0 mm
02:30 PM 28.1°F-2.2°C 23.9°F-4.5°C 84% 1.4 mph NNW2.3 kmh NNW 2.3 mph3.7 kmh 30.24 in1024.0 mb 0.00 in0.0 mm 0.00 in/hr0.0 mm/hr 0.00 in0.0 mm
02:15 PM 28.1°F-2.2°C 23.6°F-4.7°C 83% 1.8 mph NW2.9 kmh NW 3.7 mph6.0 kmh 30.24 in1024.0 mb 0.00 in0.0 mm 0.00 in/hr0.0 mm/hr 0.00 in0.0 mm
02:00 PM 28.1°F-2.2°C 23.0°F-5.0°C 81% 1.0 mph NW1.6 kmh NW 1.5 mph2.4 kmh 30.24 in1024.0 mb 0.00 in0.0 mm 0.00 in/hr0.0 mm/hr 0.00 in0.0 mm
01:45 PM 28.0°F-2.2°C 22.9°F-5.1°C 81% 1.5 mph NW2.4 kmh NW 2.3 mph3.7 kmh 30.24 in1024.0 mb 0.00 in0.0 mm 0.00 in/hr0.0 mm/hr 0.00 in0.0 mm
01:30 PM 27.9°F-2.3°C 22.8°F-5.1°C 81% 1.3 mph NW2.1 kmh NW 3.0 mph4.8 kmh 30.24 in1024.0 mb 0.00 in0.0 mm 0.00 in/hr0.0 mm/hr 0.00 in0.0 mm
01:15 PM 28.0°F-2.2°C 22.6°F-5.2°C 80% 1.8 mph NW2.9 kmh NW 3.0 mph4.8 kmh 30.25 in1024.4 mb 0.00 in0.0 mm 0.00 in/hr0.0 mm/hr 0.00 in0.0 mm
01:00 PM 28.1°F-2.2°C 22.7°F-5.2°C 80% 1.7 mph NW2.7 kmh NW 3.7 mph6.0 kmh 30.25 in1024.4 mb 0.00 in0.0 mm 0.00 in/hr0.0 mm/hr 0.00 in0.0 mm
12:45 PM 27.9°F-2.3°C 22.5°F-5.3°C 80% 2.2 mph NW3.5 kmh NW 3.0 mph4.8 kmh 30.25 in1024.4 mb 0.00 in0.0 mm 0.00 in/hr0.0 mm/hr 0.00 in0.0 mm
12:30 PM 27.7°F-2.4°C 22.9°F-5.1°C 82% 1.8 mph WNW2.9 kmh WNW 3.7 mph6.0 kmh 30.26 in1024.7 mb 0.00 in0.0 mm 0.00 in/hr0.0 mm/hr 0.00 in0.0 mm
12:15 PM 27.5°F-2.5°C 23.3°F-4.8°C 84% 1.6 mph NW2.6 kmh NW 2.3 mph3.7 kmh 30.26 in1024.7 mb 0.00 in0.0 mm 0.00 in/hr0.0 mm/hr 0.00 in0.0 mm
12:00 PM 26.9°F-2.8°C 23.3°F-4.8°C 86% 1.9 mph WNW3.1 kmh WNW 2.3 mph3.7 kmh 30.27 in1025.1 mb 0.00 in0.0 mm 0.00 in/hr0.0 mm/hr 0.00 in0.0 mm
11:45 AM 26.5°F-3.1°C 23.2°F-4.9°C 87% 1.7 mph WNW2.7 kmh WNW 2.3 mph3.7 kmh 30.27 in1025.1 mb 0.00 in0.0 mm 0.00 in/hr0.0 mm/hr 0.00 in0.0 mm
11:30 AM 26.1°F-3.3°C 22.7°F-5.2°C 87% 2.3 mph WNW3.7 kmh WNW 3.0 mph4.8 kmh 30.28 in1025.4 mb 0.00 in0.0 mm 0.00 in/hr0.0 mm/hr 0.00 in0.0 mm
11:15 AM 25.6°F-3.6°C 22.5°F-5.3°C 88% 0.8 mph WNW1.3 kmh WNW 2.3 mph3.7 kmh 30.29 in1025.7 mb 0.00 in0.0 mm 0.00 in/hr0.0 mm/hr 0.00 in0.0 mm
11:00 AM 25.2°F-3.8°C 22.4°F-5.3°C 89% 0.7 mph WSW1.1 kmh WSW 1.5 mph2.4 kmh 30.29 in1025.7 mb 0.00 in0.0 mm 0.00 in/hr0.0 mm/hr 0.00 in0.0 mm
10:45 AM 24.7°F-4.1°C 22.2°F-5.4°C 90% 1.2 mph WNW1.9 kmh WNW 1.5 mph2.4 kmh 30.30 in1026.1 mb 0.00 in0.0 mm 0.00 in/hr0.0 mm/hr 0.00 in0.0 mm
10:30 AM 24.3°F-4.3°C 21.5°F-5.8°C 89% 1.5 mph W2.4 kmh W 2.3 mph3.7 kmh 30.30 in1026.1 mb 0.00 in0.0 mm 0.00 in/hr0.0 mm/hr 0.00 in0.0 mm
10:15 AM 23.9°F-4.5°C 21.1°F-6.1°C 89% 2.1 mph WNW3.4 kmh WNW 3.0 mph4.8 kmh 30.31 in1026.4 mb 0.00 in0.0 mm 0.00 in/hr0.0 mm/hr 0.00 in0.0 mm
10:00 AM 23.5°F-4.7°C 21.0°F-6.1°C 90% 1.5 mph W2.4 kmh W 2.3 mph3.7 kmh 30.31 in1026.4 mb 0.00 in0.0 mm 0.00 in/hr0.0 mm/hr 0.00 in0.0 mm
09:45 AM 22.9°F-5.1°C 20.4°F-6.4°C 90% 1.3 mph W2.1 kmh W 1.5 mph2.4 kmh 30.31 in1026.4 mb 0.00 in0.0 mm 0.00 in/hr0.0 mm/hr 0.00 in0.0 mm
09:30 AM 22.2°F-5.4°C 19.8°F-6.8°C 90% 1.7 mph WSW2.7 kmh WSW 1.5 mph2.4 kmh 30.31 in1026.4 mb 0.00 in0.0 mm 0.00 in/hr0.0 mm/hr 0.00 in0.0 mm
09:15 AM 21.7°F-5.7°C 19.2°F-7.1°C 90% 3.0 mph WSW4.8 kmh WSW 5.2 mph8.4 kmh 30.31 in1026.4 mb 0.00 in0.0 mm 0.00 in/hr0.0 mm/hr 0.00 in0.0 mm
09:00 AM 21.1°F-6.1°C 18.6°F-7.4°C 90% 1.8 mph WSW2.9 kmh WSW 4.5 mph7.2 kmh 30.31 in1026.4 mb 0.00 in0.0 mm 0.00 in/hr0.0 mm/hr 0.00 in0.0 mm
08:45 AM 20.4°F-6.4°C 18.0°F-7.8°C 90% 1.4 mph WSW2.3 kmh WSW 2.3 mph3.7 kmh 30.31 in1026.4 mb 0.00 in0.0 mm 0.00 in/hr0.0 mm/hr 0.00 in0.0 mm
08:30 AM 19.4°F-7.0°C 17.2°F-8.2°C 91% Calm Calm 1.5 mph2.4 kmh 30.31 in1026.4 mb 0.00 in0.0 mm 0.00 in/hr0.0 mm/hr 0.00 in0.0 mm
08:15 AM 19.0°F-7.2°C 16.8°F-8.4°C 91% 1.1 mph W1.8 kmh W 1.5 mph2.4 kmh 30.30 in1026.1 mb 0.00 in0.0 mm 0.00 in/hr0.0 mm/hr 0.00 in0.0 mm
08:00 AM 18.1°F-7.7°C 15.9°F-8.9°C 91% 1.1 mph WSW1.8 kmh WSW 3.0 mph4.8 kmh 30.30 in1026.1 mb 0.00 in0.0 mm 0.00 in/hr0.0 mm/hr 0.00 in0.0 mm
07:45 AM 17.3°F-8.2°C 15.4°F-9.2°C 92% 0.9 mph W1.4 kmh W 2.3 mph3.7 kmh 30.30 in1026.1 mb 0.00 in0.0 mm 0.00 in/hr0.0 mm/hr 0.00 in0.0 mm
07:30 AM 16.9°F-8.4°C 14.7°F-9.6°C 91% Calm Calm -- 30.29 in1025.7 mb 0.00 in0.0 mm 0.00 in/hr0.0 mm/hr 0.00 in0.0 mm
07:15 AM 17.2°F-8.2°C 15.0°F-9.4°C 91% 1.5 mph WNW2.4 kmh WNW 1.5 mph2.4 kmh 30.29 in1025.7 mb 0.00 in0.0 mm 0.00 in/hr0.0 mm/hr 0.00 in0.0 mm
07:00 AM 16.5°F-8.6°C 14.5°F-9.7°C 92% 1.1 mph W1.8 kmh W 1.5 mph2.4 kmh 30.29 in1025.7 mb 0.00 in0.0 mm 0.00 in/hr0.0 mm/hr 0.00 in0.0 mm
06:45 AM 16.5°F-8.6°C 14.3°F-9.8°C 91% 0.4 mph W0.6 kmh W 0.8 mph1.3 kmh 30.29 in1025.7 mb 0.00 in0.0 mm 0.00 in/hr0.0 mm/hr 0.00 in0.0 mm
06:30 AM 16.7°F-8.5°C 14.8°F-9.6°C 92% 0.7 mph W1.1 kmh W 1.5 mph2.4 kmh 30.29 in1025.7 mb 0.00 in0.0 mm 0.00 in/hr0.0 mm/hr 0.00 in0.0 mm
06:15 AM 16.7°F-8.5°C 14.8°F-9.6°C 92% 0.9 mph W1.4 kmh W 1.5 mph2.4 kmh 30.28 in1025.4 mb 0.00 in0.0 mm 0.00 in/hr0.0 mm/hr 0.00 in0.0 mm
06:00 AM 15.9°F-8.9°C 14.0°F-10.0°C 92% 0.7 mph W1.1 kmh W 1.5 mph2.4 kmh 30.27 in1025.1 mb 0.00 in0.0 mm 0.00 in/hr0.0 mm/hr 0.00 in0.0 mm
05:45 AM 16.1°F-8.8°C 13.9°F-10.1°C 91% 0.4 mph W0.6 kmh W 0.8 mph1.3 kmh 30.27 in1025.1 mb 0.00 in0.0 mm 0.00 in/hr0.0 mm/hr 0.00 in0.0 mm
05:30 AM 16.3°F-8.7°C 14.1°F-9.9°C 91% 0.8 mph W1.3 kmh W 1.5 mph2.4 kmh 30.27 in1025.1 mb 0.00 in0.0 mm 0.00 in/hr0.0 mm/hr 0.00 in0.0 mm
05:15 AM 16.3°F-8.7°C 14.4°F-9.8°C 92% 0.7 mph W1.1 kmh W 1.5 mph2.4 kmh 30.27 in1025.1 mb 0.00 in0.0 mm 0.00 in/hr0.0 mm/hr 0.00 in0.0 mm
05:00 AM 16.0°F-8.9°C 14.1°F-9.9°C 92% 0.9 mph NW1.4 kmh NW 1.5 mph2.4 kmh 30.27 in1025.1 mb 0.00 in0.0 mm 0.00 in/hr0.0 mm/hr 0.00 in0.0 mm
04:45 AM 16.3°F-8.7°C 13.9°F-10.1°C 90% Calm Calm -- 30.28 in1025.4 mb 0.00 in0.0 mm 0.00 in/hr0.0 mm/hr 0.00 in0.0 mm
04:30 AM 16.7°F-8.5°C 14.5°F-9.7°C 91% 0.5 mph NW0.8 kmh NW 0.8 mph1.3 kmh 30.28 in1025.4 mb 0.00 in0.0 mm 0.00 in/hr0.0 mm/hr 0.00 in0.0 mm
04:15 AM 16.4°F-8.7°C 14.3°F-9.8°C 91% 0.5 mph NW0.8 kmh NW 0.8 mph1.3 kmh 30.28 in1025.4 mb 0.00 in0.0 mm 0.00 in/hr0.0 mm/hr 0.00 in0.0 mm
04:00 AM 16.4°F-8.7°C 14.0°F-10.0°C 90% Calm Calm -- 30.29 in1025.7 mb 0.00 in0.0 mm 0.00 in/hr0.0 mm/hr 0.00 in0.0 mm
03:45 AM 16.8°F-8.4°C 14.1°F-9.9°C 89% Calm Calm -- 30.29 in1025.7 mb 0.00 in0.0 mm 0.00 in/hr0.0 mm/hr 0.00 in0.0 mm
03:30 AM 17.3°F-8.2°C 14.9°F-9.5°C 90% 0.3 mph NW0.5 kmh NW 1.5 mph2.4 kmh 30.29 in1025.7 mb 0.00 in0.0 mm 0.00 in/hr0.0 mm/hr 0.00 in0.0 mm
03:15 AM 17.6°F-8.0°C 14.9°F-9.5°C 89% Calm Calm -- 30.29 in1025.7 mb 0.00 in0.0 mm 0.00 in/hr0.0 mm/hr 0.00 in0.0 mm
03:00 AM 17.8°F-7.9°C 14.9°F-9.5°C 88% Calm Calm -- 30.28 in1025.4 mb 0.00 in0.0 mm 0.00 in/hr0.0 mm/hr 0.00 in0.0 mm
02:45 AM 18.1°F-7.7°C 15.1°F-9.4°C 88% 0.1 mph NW0.2 kmh NW 0.8 mph1.3 kmh 30.29 in1025.7 mb 0.00 in0.0 mm 0.00 in/hr0.0 mm/hr 0.00 in0.0 mm
02:30 AM 18.4°F-7.6°C 15.4°F-9.2°C 88% 0.7 mph NW1.1 kmh NW 0.8 mph1.3 kmh 30.30 in1026.1 mb 0.00 in0.0 mm 0.00 in/hr0.0 mm/hr 0.00 in0.0 mm
02:15 AM 18.6°F-7.4°C 15.6°F-9.1°C 88% 1.4 mph NW2.3 kmh NW 3.0 mph4.8 kmh 30.30 in1026.1 mb 0.00 in0.0 mm 0.00 in/hr0.0 mm/hr 0.00 in0.0 mm
02:00 AM 18.3°F-7.6°C 15.6°F-9.1°C 89% 1.1 mph WNW1.8 kmh WNW 2.3 mph3.7 kmh 30.30 in1026.1 mb 0.00 in0.0 mm 0.00 in/hr0.0 mm/hr 0.00 in0.0 mm
01:45 AM 18.1°F-7.7°C 15.4°F-9.2°C 89% 1.6 mph WNW2.6 kmh WNW 3.0 mph4.8 kmh 30.30 in1026.1 mb 0.00 in0.0 mm 0.00 in/hr0.0 mm/hr 0.00 in0.0 mm
01:30 AM 18.3°F-7.6°C 15.3°F-9.3°C 88% 1.6 mph WNW2.6 kmh WNW 2.3 mph3.7 kmh 30.29 in1025.7 mb 0.00 in0.0 mm 0.00 in/hr0.0 mm/hr 0.00 in0.0 mm
01:15 AM 18.5°F-7.5°C 15.5°F-9.2°C 88% 1.5 mph WNW2.4 kmh WNW 3.0 mph4.8 kmh 30.29 in1025.7 mb 0.00 in0.0 mm 0.00 in/hr0.0 mm/hr 0.00 in0.0 mm
01:00 AM 18.4°F-7.6°C 15.5°F-9.2°C 88% 1.5 mph W2.4 kmh W 2.3 mph3.7 kmh 30.29 in1025.7 mb 0.00 in0.0 mm 0.00 in/hr0.0 mm/hr 0.00 in0.0 mm
12:45 AM 18.6°F-7.4°C 15.6°F-9.1°C 88% 1.5 mph WNW2.4 kmh WNW 2.3 mph3.7 kmh 30.30 in1026.1 mb 0.00 in0.0 mm 0.00 in/hr0.0 mm/hr 0.00 in0.0 mm
12:30 AM 18.5°F-7.5°C 15.5°F-9.2°C 88% 1.4 mph WNW2.3 kmh WNW 2.3 mph3.7 kmh 30.30 in1026.1 mb 0.00 in0.0 mm 0.00 in/hr0.0 mm/hr 0.00 in0.0 mm
12:15 AM 18.5°F-7.5°C 15.5°F-9.2°C 88% 0.8 mph W1.3 kmh W 0.8 mph1.3 kmh 30.30 in1026.1 mb 0.00 in0.0 mm 0.00 in/hr0.0 mm/hr 0.00 in0.0 mm
12:00 AM 19.1°F-7.2°C 15.9°F-8.9°C 87% 0.9 mph W1.4 kmh W 2.3 mph3.7 kmh 30.30 in1026.1 mb 0.00 in0.0 mm 0.00 in/hr0.0 mm/hr 0.00 in0.0 mm